Time;durP1;ratioP1;P1;durP2;ratioP2;P2;SDS_P1;SDS_P2;PMS_P1;PMS_P2;Temp;Humidity;BMP_temperature;BMP_pressure;BME280_temperature;BME280_humidity;BME280_pressure;Samples;Min_cycle;Max_cycle;Signal;HPM_P1;HPM_P2
2022/09/11 00:01:25;;;;;;;2.30;1.10;;;;;18.40;98922.00;;;;16523726;28;20223;-51
2022/09/11 00:09:27;;;;;;;1.90;1.43;;;;;18.60;98915.00;;;;16529153;28;20242;-49
2022/09/11 00:17:31;;;;;;;1.70;1.60;;;;;18.60;98913.00;;;;16517529;28;20994;-49
2022/09/11 00:25:34;;;;;;;1.60;1.47;;;;;18.90;98914.00;;;;16522820;28;20257;-51
2022/09/11 00:33:39;;;;;;;3.07;1.83;;;;;18.80;98908.00;;;;16520978;28;20242;-51
2022/09/11 00:41:43;;;;;;;3.53;1.50;;;;;19.40;98908.00;;;;16524970;28;20230;-51
2022/09/11 00:49:49;;;;;;;2.10;1.50;;;;;18.40;98902.00;;;;16518414;28;20225;-50
2022/09/11 00:57:55;;;;;;;2.13;1.40;;;;;18.60;98902.00;;;;16528685;28;20295;-50
2022/09/11 01:05:59;;;;;;;7.27;1.80;;;;;18.60;98891.00;;;;16539528;28;20839;-51
2022/09/11 01:14:09;;;;;;;2.20;1.67;;;;;18.30;98900.00;;;;16527396;28;20322;-50
2022/09/11 01:22:48;;;;;;;2.30;1.67;;;;;18.30;98893.00;;;;16529419;28;20238;-49
2022/09/11 01:30:56;;;;;;;1.87;1.63;;;;;18.20;98889.00;;;;16480395;28;20206;-51
2022/09/11 01:39:02;;;;;;;3.10;1.80;;;;;18.20;98901.00;;;;16524712;28;20243;-50
2022/09/11 01:47:09;;;;;;;2.90;1.70;;;;;18.80;98904.00;;;;16527668;28;20362;-49
2022/09/11 01:55:15;;;;;;;5.53;2.37;;;;;18.40;98902.00;;;;16537853;28;20226;-50
2022/09/11 02:03:23;;;;;;;2.73;2.10;;;;;18.50;98901.00;;;;16525127;28;20587;-49
2022/09/11 02:11:28;;;;;;;2.77;1.63;;;;;18.30;98903.00;;;;16519582;28;20211;-50
2022/09/11 02:19:32;;;;;;;1.73;1.63;;;;;17.80;98917.00;;;;16525040;28;20228;-50
2022/09/11 02:27:35;;;;;;;3.40;1.97;;;;;19.00;98915.00;;;;16531361;28;20216;-51
2022/09/11 02:35:45;;;;;;;2.60;2.17;;;;;18.30;98919.00;;;;16523011;28;20307;-49
2022/09/11 02:43:56;;;;;;;2.40;2.20;;;;;19.00;98917.00;;;;16517276;28;20597;-51
2022/09/11 02:52:10;;;;;;;3.80;1.70;;;;;19.10;98924.00;;;;16515237;28;20203;-50
2022/09/11 03:00:14;;;;;;;1.80;1.70;;;;;18.20;98937.00;;;;16532300;28;20247;-49
2022/09/11 03:08:19;;;;;;;2.73;1.90;;;;;18.20;98929.00;;;;16523781;28;20347;-49
2022/09/11 03:16:21;;;;;;;2.67;2.00;;;;;18.30;98925.00;;;;16521844;28;20212;-51
2022/09/11 03:24:27;;;;;;;2.13;1.80;;;;;18.60;98927.00;;;;16517075;28;20216;-50
2022/09/11 03:32:31;;;;;;;2.80;2.60;;;;;19.10;98932.00;;;;16518292;28;20653;-50
2022/09/11 03:40:35;;;;;;;1.87;1.77;;;;;19.40;98931.00;;;;16518226;28;20238;-51
2022/09/11 03:48:38;;;;;;;3.30;2.60;;;;;19.80;98933.00;;;;16518371;28;20769;-49
2022/09/11 03:56:42;;;;;;;2.43;2.10;;;;;18.90;98935.00;;;;16523342;28;20326;-51
2022/09/11 04:04:45;;;;;;;3.03;2.20;;;;;19.30;98930.00;;;;16526552;28;20220;-51
2022/09/11 04:12:49;;;;;;;3.30;2.17;;;;;19.00;98936.00;;;;16517504;28;20382;-50
2022/09/11 04:20:55;;;;;;;2.50;2.23;;;;;19.10;98934.00;;;;16518182;28;20218;-51
2022/09/11 04:29:00;;;;;;;3.17;2.70;;;;;19.30;98942.00;;;;16523968;28;20228;-51
2022/09/11 04:37:03;;;;;;;3.73;2.20;;;;;18.20;98958.00;;;;16514017;28;20222;-49
2022/09/11 04:45:09;;;;;;;2.63;2.40;;;;;18.90;98952.00;;;;16511646;28;20644;-50
2022/09/11 04:53:12;;;;;;;3.60;3.30;;;;;18.90;98964.00;;;;16520818;28;20565;-50
2022/09/11 05:01:18;;;;;;;3.40;3.10;;;;;18.80;98965.00;;;;16526453;28;20249;-51
2022/09/11 05:09:27;;;;;;;3.63;3.33;;;;;18.00;98994.00;;;;16519618;28;20223;-50
2022/09/11 05:17:31;;;;;;;6.13;4.00;;;;;18.00;98999.00;;;;16511874;28;20250;-50
2022/09/11 05:25:35;;;;;;;4.70;4.03;;;;;18.20;99002.00;;;;16520723;28;20227;-50
2022/09/11 05:33:40;;;;;;;4.13;3.90;;;;;18.10;99010.00;;;;16517730;28;20306;-51
2022/09/11 05:41:42;;;;;;;5.33;4.73;;;;;18.20;99024.00;;;;16521802;28;20224;-51
2022/09/11 05:49:46;;;;;;;4.87;4.50;;;;;18.30;99021.00;;;;16507345;28;20226;-52
2022/09/11 05:57:51;;;;;;;5.80;5.30;;;;;18.60;99030.00;;;;16521266;28;20625;-50
2022/09/11 06:06:00;;;;;;;6.03;5.43;;;;;18.50;99032.00;;;;16508235;28;20279;-50
2022/09/11 06:14:02;;;;;;;5.80;5.37;;;;;18.40;99044.00;;;;16498816;28;20592;-49
2022/09/11 06:22:07;;;;;;;5.70;5.20;;;;;18.50;99042.00;;;;16505945;28;20224;-51
2022/09/11 06:30:14;;;;;;;7.87;6.13;;;;;18.50;99059.00;;;;16512295;28;20212;-50
2022/09/11 06:38:21;;;;;;;6.10;5.60;;;;;18.80;99071.00;;;;16515904;28;20833;-51
2022/09/11 06:46:25;;;;;;;9.10;5.87;;;;;18.70;99078.00;;;;16507864;28;20251;-49
2022/09/11 06:54:32;;;;;;;6.23;5.63;;;;;18.70;99088.00;;;;16497825;28;20232;-50
2022/09/11 07:02:38;;;;;;;6.57;6.07;;;;;18.90;99089.00;;;;16508056;28;20231;-51
2022/09/11 07:10:42;;;;;;;7.23;6.53;;;;;19.00;99082.00;;;;16501741;28;20192;-50
2022/09/11 07:18:46;;;;;;;6.93;6.33;;;;;19.30;99081.00;;;;16512497;28;20712;-51
2022/09/11 07:26:56;;;;;;;7.67;6.97;;;;;19.20;99086.00;;;;16521346;28;20236;-50
2022/09/11 07:35:07;;;;;;;7.17;6.67;;;;;19.10;99091.00;;;;16512318;28;20234;-49
2022/09/11 07:43:12;;;;;;;7.67;7.03;;;;;19.10;99097.00;;;;16507885;28;20231;-49
2022/09/11 07:51:17;;;;;;;8.40;7.40;;;;;19.10;99106.00;;;;16508999;28;20279;-49
2022/09/11 07:59:22;;;;;;;8.90;6.93;;;;;19.60;99117.00;;;;16493416;28;20607;-49
2022/09/11 08:07:25;;;;;;;8.20;7.50;;;;;19.40;99121.00;;;;16499853;28;20236;-49
2022/09/11 08:15:30;;;;;;;8.93;8.13;;;;;19.40;99123.00;;;;16501293;28;20236;-51
2022/09/11 08:23:33;;;;;;;9.80;8.53;;;;;19.60;99128.00;;;;16489357;28;20331;-49
2022/09/11 08:31:38;;;;;;;7.73;7.10;;;;;20.20;99129.00;;;;16508049;28;20204;-50
2022/09/11 08:39:43;;;;;;;7.97;7.20;;;;;20.30;99135.00;;;;16510917;28;20244;-50
2022/09/11 08:47:51;;;;;;;6.20;5.80;;;;;21.00;99126.00;;;;16508302;28;21083;-50
2022/09/11 08:56:00;;;;;;;7.37;6.67;;;;;20.50;99133.00;;;;16497056;28;20734;-50
2022/09/11 09:04:15;;;;;;;7.30;6.70;;;;;20.50;99135.00;;;;16498394;28;20224;-50
2022/09/11 09:12:22;;;;;;;7.23;6.70;;;;;19.70;99147.00;;;;16507762;28;20707;-50
2022/09/11 09:20:31;;;;;;;8.70;8.10;;;;;20.30;99145.00;;;;16501317;28;20231;-51
2022/09/11 09:28:38;;;;;;;7.77;7.10;;;;;20.90;99147.00;;;;16520175;28;20751;-51
2022/09/11 09:36:47;;;;;;;6.97;6.47;;;;;21.30;99140.00;;;;16528025;28;20319;-49
2022/09/11 09:45:00;;;;;;;6.47;5.97;;;;;23.60;99122.00;;;;16521446;28;20248;-51
2022/09/11 09:53:20;;;;;;;4.73;4.43;;;;;21.80;99125.00;;;;16519150;28;20216;-50
2022/09/11 10:01:48;;;;;;;5.90;5.40;;;;;21.60;99137.00;;;;16522709;28;20223;-50
2022/09/11 10:09:57;;;;;;;5.10;4.73;;;;;22.10;99140.00;;;;16515752;28;20959;-48
2022/09/11 10:18:36;;;;;;;6.67;6.13;;;;;21.90;99139.00;;;;16512094;28;20222;-49
2022/09/11 10:26:44;;;;;;;6.00;5.50;;;;;21.80;99141.00;;;;16514518;28;20232;-49
2022/09/11 10:34:47;;;;;;;5.70;5.20;;;;;22.30;99135.00;;;;16508293;28;20225;-48
2022/09/11 10:42:53;;;;;;;6.80;6.30;;;;;21.50;99139.00;;;;16512160;28;20232;-50
2022/09/11 10:51:05;;;;;;;7.03;6.43;;;;;22.10;99141.00;;;;16516833;28;20196;-51
2022/09/11 10:59:18;;;;;;;6.57;5.23;;;;;23.50;99139.00;;;;16528552;28;20238;-52
2022/09/11 11:07:41;;;;;;;8.27;5.80;;;;;23.40;99127.00;;;;16513837;28;20226;-50
2022/09/11 11:15:55;;;;;;;6.40;5.80;;;;;24.30;99112.00;;;;16518668;28;20278;-51
2022/09/11 11:24:07;;;;;;;4.80;4.33;;;;;25.50;99115.00;;;;16526289;28;20231;-52
2022/09/11 11:32:25;;;;;;;5.00;4.67;;;;;24.20;99113.00;;;;16514544;28;20192;-49
2022/09/11 11:40:30;;;;;;;6.10;5.70;;;;;23.50;99119.00;;;;16507242;28;20315;-50
2022/09/11 11:48:39;;;;;;;5.53;5.13;;;;;25.80;99112.00;;;;16510588;28;20231;-49
2022/09/11 11:56:46;;;;;;;4.50;4.20;;;;;24.00;99123.00;;;;16519657;28;20232;-49
2022/09/11 12:04:52;;;;;;;5.17;4.77;;;;;24.60;99114.00;;;;16506524;28;20223;-50
2022/09/11 12:12:58;;;;;;;4.47;3.67;;;;;26.50;99112.00;;;;16505887;28;20200;-52
2022/09/11 12:21:42;;;;;;;3.93;3.60;;;;;25.40;99109.00;;;;16506705;28;20223;-51
2022/09/11 12:29:56;;;;;;;3.67;3.40;;;;;24.70;99105.00;;;;16488365;28;20235;-51
2022/09/11 12:38:03;;;;;;;4.27;3.97;;;;;25.80;99107.00;;;;16506812;28;20728;-52
2022/09/11 12:46:11;;;;;;;3.80;3.50;;;;;25.60;99117.00;;;;16513727;28;20231;-51
2022/09/11 12:54:15;;;;;;;4.77;4.47;;;;;24.80;99117.00;;;;16509278;28;20767;-51
2022/09/11 13:02:26;;;;;;;5.70;5.20;;;;;24.00;99124.00;;;;16507469;28;20231;-51
2022/09/11 13:10:35;;;;;;;6.17;5.70;;;;;23.10;99106.00;;;;16522596;28;20216;-50
2022/09/11 13:18:44;;;;;;;13.70;11.40;;;;;23.90;99109.00;;;;16516951;28;20227;-49
2022/09/11 13:26:53;;;;;;;6.90;6.30;;;;;23.30;99106.00;;;;16526113;28;20235;-51
2022/09/11 13:35:06;;;;;;;5.73;5.23;;;;;24.10;99100.00;;;;16519849;28;20919;-51
2022/09/11 13:43:13;;;;;;;7.30;6.60;;;;;24.10;99107.00;;;;16520134;28;20236;-51
2022/09/11 13:51:19;;;;;;;5.93;5.53;;;;;24.70;99102.00;;;;16513957;28;20258;-50
2022/09/11 13:59:41;;;;;;;6.60;6.00;;;;;24.80;99095.00;;;;16520191;28;20259;-51
2022/09/11 14:07:54;;;;;;;5.80;5.37;;;;;24.30;99080.00;;;;16519618;28;20215;-51
2022/09/11 14:15:59;;;;;;;6.10;5.60;;;;;25.90;99081.00;;;;16520014;28;20219;-51
2022/09/11 14:24:06;;;;;;;6.10;5.40;;;;;25.10;99065.00;;;;16528671;28;20764;-52
2022/09/11 14:32:31;;;;;;;5.93;5.43;;;;;24.10;99059.00;;;;16524056;28;20205;-50
2022/09/11 14:40:35;;;;;;;5.77;5.27;;;;;24.10;99071.00;;;;16519998;28;20228;-48
2022/09/11 14:48:37;;;;;;;4.70;4.30;;;;;24.40;99057.00;;;;16520789;28;20326;-49
2022/09/11 14:56:41;;;;;;;4.80;4.30;;;;;25.90;99042.00;;;;16515662;28;20228;-49
2022/09/11 15:04:45;;;;;;;4.40;4.00;;;;;26.90;99033.00;;;;16515217;28;20230;-50
2022/09/11 15:12:49;;;;;;;4.13;3.83;;;;;28.20;99033.00;;;;16523599;28;20204;-49
2022/09/11 15:20:54;;;;;;;4.37;4.07;;;;;26.80;99016.00;;;;16513451;28;20224;-49
2022/09/11 15:28:58;;;;;;;4.10;3.90;;;;;27.40;99026.00;;;;16523208;28;20215;-49
2022/09/11 15:37:00;;;;;;;5.10;4.70;;;;;28.30;99020.00;;;;16516406;28;20621;-46
2022/09/11 15:45:06;;;;;;;4.47;4.17;;;;;29.60;99021.00;;;;16513567;28;20220;-47
2022/09/11 15:53:09;;;;;;;4.50;4.10;;;;;28.60;99016.00;;;;16510706;28;20219;-47
2022/09/11 16:01:18;;;;;;;4.97;4.60;;;;;30.00;99003.00;;;;16507620;28;20219;-46
2022/09/11 16:09:22;;;;;;;3.90;3.60;;;;;31.80;99011.00;;;;16519081;28;20226;-46
2022/09/11 16:17:29;;;;;;;5.30;4.80;;;;;30.40;99004.00;;;;16514995;28;20716;-45
2022/09/11 16:25:32;;;;;;;5.23;4.20;;;;;29.60;99004.00;;;;16500590;28;20307;-46
2022/09/11 16:33:39;;;;;;;6.73;4.10;;;;;31.00;99005.00;;;;16510382;28;20224;-46
2022/09/11 16:41:42;;;;;;;4.17;3.87;;;;;30.00;99003.00;;;;16514132;28;20244;-46
2022/09/11 16:49:45;;;;;;;5.90;4.10;;;;;31.00;99003.00;;;;16522439;28;20231;-46
2022/09/11 16:57:48;;;;;;;5.40;5.00;;;;;31.20;99009.00;;;;16526985;28;20232;-46
2022/09/11 17:05:54;;;;;;;7.83;6.53;;;;;30.50;99011.00;;;;16525513;28;20224;-46
2022/09/11 17:13:56;;;;;;;6.00;5.10;;;;;28.80;98996.00;;;;16526471;28;20220;-46
2022/09/11 17:22:00;;;;;;;6.00;5.60;;;;;28.00;99001.00;;;;16524612;28;20278;-50
2022/09/11 17:30:03;;;;;;;18.17;6.70;;;;;27.50;99003.00;;;;16523801;28;20235;-48
2022/09/11 17:38:07;;;;;;;6.40;5.90;;;;;26.60;99014.00;;;;16521643;28;20215;-49
2022/09/11 17:46:10;;;;;;;6.20;5.67;;;;;26.50;99013.00;;;;16519614;28;20319;-47
2022/09/11 17:54:15;;;;;;;7.27;6.73;;;;;22.30;99042.00;;;;16517657;28;20225;-49
2022/09/11 18:02:18;;;;;;;6.93;6.43;;;;;21.00;99060.00;;;;16515265;28;20227;-49
2022/09/11 18:10:23;;;;;;;6.33;5.93;;;;;21.00;99065.00;;;;16518698;28;20216;-49
2022/09/11 18:18:26;;;;;;;7.33;6.70;;;;;20.50;99064.00;;;;16515309;28;20235;-49
2022/09/11 18:26:31;;;;;;;7.67;7.10;;;;;20.40;99069.00;;;;16512848;28;20262;-49
2022/09/11 18:34:34;;;;;;;8.43;7.73;;;;;19.60;99076.00;;;;16518051;28;20235;-48
2022/09/11 18:42:39;;;;;;;8.17;7.47;;;;;19.60;99069.00;;;;16518477;28;20274;-49
2022/09/11 18:50:42;;;;;;;9.60;8.80;;;;;19.30;99072.00;;;;16520941;28;20262;-49
2022/09/11 18:58:48;;;;;;;9.70;8.90;;;;;19.10;99072.00;;;;16525797;28;20829;-49
2022/09/11 19:06:50;;;;;;;9.30;8.50;;;;;18.90;99072.00;;;;16526704;28;20228;-49
2022/09/11 19:14:54;;;;;;;9.13;8.43;;;;;18.60;99069.00;;;;16525313;28;20234;-48
2022/09/11 19:22:58;;;;;;;13.03;9.10;;;;;18.50;99079.00;;;;16512646;28;20229;-49
2022/09/11 19:31:02;;;;;;;9.53;8.73;;;;;18.60;99089.00;;;;16524533;28;20203;-49
2022/09/11 19:39:06;;;;;;;9.60;8.80;;;;;18.30;99090.00;;;;16518468;28;20231;-49
2022/09/11 19:47:10;;;;;;;10.03;9.23;;;;;18.20;99082.00;;;;16519540;28;20247;-49
2022/09/11 19:55:12;;;;;;;10.20;9.30;;;;;17.80;99075.00;;;;16521452;28;20236;-49
2022/09/11 20:03:16;;;;;;;9.13;8.27;;;;;17.70;99078.00;;;;16517952;28;20242;-48
2022/09/11 20:11:20;;;;;;;11.00;10.10;;;;;17.50;99083.00;;;;16514189;28;20227;-50
2022/09/11 20:19:23;;;;;;;10.43;9.53;;;;;17.60;99086.00;;;;16517152;28;20244;-49
2022/09/11 20:27:26;;;;;;;10.10;9.20;;;;;17.10;99094.00;;;;16517997;28;20598;-49
2022/09/11 20:35:30;;;;;;;10.87;9.97;;;;;17.30;99091.00;;;;16511194;28;20911;-49
2022/09/11 20:43:32;;;;;;;12.60;9.10;;;;;17.20;99085.00;;;;16511909;28;20236;-49
2022/09/11 20:51:36;;;;;;;9.90;9.10;;;;;17.00;99084.00;;;;16501601;28;20210;-48
2022/09/11 20:59:38;;;;;;;9.47;8.43;;;;;17.00;99079.00;;;;16511232;28;20223;-50
2022/09/11 21:07:42;;;;;;;11.43;9.43;;;;;17.00;99072.00;;;;16496785;28;20236;-50
2022/09/11 21:15:45;;;;;;;11.77;10.77;;;;;16.60;99075.00;;;;16511255;28;20226;-50
2022/09/11 21:23:49;;;;;;;10.57;9.43;;;;;16.30;99085.00;;;;16511066;28;20227;-50
2022/09/11 21:31:52;;;;;;;12.33;10.83;;;;;16.60;99075.00;;;;16526893;28;20207;-50
2022/09/11 21:39:57;;;;;;;10.90;10.00;;;;;16.00;99083.00;;;;16521119;28;20242;-50
2022/09/11 21:47:59;;;;;;;11.87;10.53;;;;;15.80;99080.00;;;;16528015;28;20245;-50
2022/09/11 21:56:04;;;;;;;10.83;9.80;;;;;16.10;99081.00;;;;16518502;28;20551;-50
2022/09/11 22:04:06;;;;;;;10.70;9.80;;;;;15.80;99070.00;;;;16522507;28;20228;-50
2022/09/11 22:12:10;;;;;;;11.60;10.60;;;;;15.70;99076.00;;;;16531112;28;20214;-50
2022/09/11 22:20:13;;;;;;;12.83;11.73;;;;;15.60;99081.00;;;;16524501;28;20253;-50
2022/09/11 22:28:19;;;;;;;12.70;11.50;;;;;15.70;99067.00;;;;16522229;28;20711;-49
2022/09/11 22:36:23;;;;;;;12.40;11.40;;;;;15.60;99070.00;;;;16518366;28;20326;-50
2022/09/11 22:44:27;;;;;;;11.10;10.10;;;;;16.10;99056.00;;;;16523656;28;20736;-50
2022/09/11 22:52:30;;;;;;;10.80;9.90;;;;;16.20;99066.00;;;;16523532;28;20663;-50
2022/09/11 23:00:36;;;;;;;11.83;10.77;;;;;16.30;99066.00;;;;16529136;28;20219;-50
2022/09/11 23:08:39;;;;;;;11.73;10.37;;;;;16.20;99059.00;;;;16520463;28;20227;-49
2022/09/11 23:16:43;;;;;;;11.30;10.00;;;;;15.70;99062.00;;;;16544323;23;20333;-48
2022/09/11 23:24:46;;;;;;;10.53;9.50;;;;;15.70;99054.00;;;;16568170;28;20226;-48
2022/09/11 23:32:49;;;;;;;11.10;9.63;;;;;15.90;99040.00;;;;16567960;28;20602;-48
2022/09/11 23:40:52;;;;;;;11.60;10.50;;;;;15.40;99039.00;;;;16572216;28;20232;-47
2022/09/11 23:48:56;;;;;;;9.77;8.90;;;;;15.50;99037.00;;;;16577491;28;20367;-47
2022/09/11 23:56:59;;;;;;;11.67;10.63;;;;;15.70;99042.00;;;;16577894;28;20227;-47
